sensor_id;sensor_type;location;lat;lon;timestamp;pressure;altitude;pressure_sealevel;temperature;humidity
71791;BME280;59638;52.126;5.434;2022-11-20T00:00:53;101616.44;;;-4.65;96.84
71791;BME280;59638;52.126;5.434;2022-11-20T00:03:19;101617.38;;;-4.69;96.99
71791;BME280;59638;52.126;5.434;2022-11-20T00:05:46;101618.31;;;-4.74;97.30
71791;BME280;59638;52.126;5.434;2022-11-20T00:08:12;101608.88;;;-4.77;97.29
71791;BME280;59638;52.126;5.434;2022-11-20T00:10:39;101606.28;;;-4.74;97.42
71791;BME280;59638;52.126;5.434;2022-11-20T00:13:07;101612.31;;;-4.75;97.54
71791;BME280;59638;52.126;5.434;2022-11-20T00:15:33;101606.31;;;-4.78;97.43
71791;BME280;59638;52.126;5.434;2022-11-20T00:18:00;101598.69;;;-4.84;97.20
71791;BME280;59638;52.126;5.434;2022-11-20T00:20:26;101603.03;;;-4.88;97.58
71791;BME280;59638;52.126;5.434;2022-11-20T00:22:53;101604.81;;;-4.93;97.21
71791;BME280;59638;52.126;5.434;2022-11-20T00:25:19;101603.13;;;-4.94;97.94
71791;BME280;59638;52.126;5.434;2022-11-20T00:27:45;101596.94;;;-4.82;97.70
71791;BME280;59638;52.126;5.434;2022-11-20T00:30:12;101606.22;;;-4.71;98.02
71791;BME280;59638;52.126;5.434;2022-11-20T00:32:40;101599.38;;;-4.72;97.98
71791;BME280;59638;52.126;5.434;2022-11-20T00:35:07;101602.84;;;-4.76;98.14
71791;BME280;59638;52.126;5.434;2022-11-20T00:37:33;101600.34;;;-4.80;98.01
71791;BME280;59638;52.126;5.434;2022-11-20T00:39:59;101602.75;;;-4.70;98.37
71791;BME280;59638;52.126;5.434;2022-11-20T00:42:26;101593.94;;;-4.53;98.51
71791;BME280;59638;52.126;5.434;2022-11-20T00:44:52;101592.91;;;-4.43;98.56
71791;BME280;59638;52.126;5.434;2022-11-20T00:47:18;101597.06;;;-4.33;98.49
71791;BME280;59638;52.126;5.434;2022-11-20T00:49:45;101598.91;;;-4.41;98.59
71791;BME280;59638;52.126;5.434;2022-11-20T00:52:11;101593.13;;;-4.55;99.10
71791;BME280;59638;52.126;5.434;2022-11-20T00:54:37;101590.72;;;-4.68;99.15
71791;BME280;59638;52.126;5.434;2022-11-20T00:57:04;101588.25;;;-4.74;98.29
71791;BME280;59638;52.126;5.434;2022-11-20T00:59:30;101584.00;;;-4.78;98.66
71791;BME280;59638;52.126;5.434;2022-11-20T01:01:57;101578.91;;;-4.81;98.53
71791;BME280;59638;52.126;5.434;2022-11-20T01:04:23;101580.69;;;-4.86;99.35
71791;BME280;59638;52.126;5.434;2022-11-20T01:06:49;101586.72;;;-4.87;99.14
71791;BME280;59638;52.126;5.434;2022-11-20T01:09:16;101572.97;;;-4.86;98.83
71791;BME280;59638;52.126;5.434;2022-11-20T01:11:43;101576.53;;;-4.95;98.76
71791;BME280;59638;52.126;5.434;2022-11-20T01:14:13;101573.16;;;-5.00;98.52
71791;BME280;59638;52.126;5.434;2022-11-20T01:16:45;101582.63;;;-5.03;98.87
71791;BME280;59638;52.126;5.434;2022-11-20T01:19:14;101582.72;;;-5.09;98.96
71791;BME280;59638;52.126;5.434;2022-11-20T01:21:45;101580.19;;;-5.12;98.84
71791;BME280;59638;52.126;5.434;2022-11-20T01:24:14;101564.75;;;-5.12;98.85
71791;BME280;59638;52.126;5.434;2022-11-20T01:26:43;101565.38;;;-4.95;98.99
71791;BME280;59638;52.126;5.434;2022-11-20T01:29:15;101567.97;;;-4.98;98.96
71791;BME280;59638;52.126;5.434;2022-11-20T01:31:42;101568.94;;;-5.05;99.30
71791;BME280;59638;52.126;5.434;2022-11-20T01:34:12;101570.78;;;-5.13;98.70
71791;BME280;59638;52.126;5.434;2022-11-20T01:36:40;101570.00;;;-5.20;99.40
71791;BME280;59638;52.126;5.434;2022-11-20T01:39:11;101566.59;;;-5.24;99.65
71791;BME280;59638;52.126;5.434;2022-11-20T01:41:39;101569.25;;;-5.30;98.89
71791;BME280;59638;52.126;5.434;2022-11-20T01:44:50;101564.16;;;-5.33;99.25
71791;BME280;59638;52.126;5.434;2022-11-20T01:47:41;101564.94;;;-5.26;99.66
71791;BME280;59638;52.126;5.434;2022-11-20T01:50:23;101568.31;;;-5.21;98.97
71791;BME280;59638;52.126;5.434;2022-11-20T01:53:01;101573.50;;;-5.26;99.23
71791;BME280;59638;52.126;5.434;2022-11-20T01:55:32;101562.34;;;-5.25;99.37
71791;BME280;59638;52.126;5.434;2022-11-20T01:58:01;101559.75;;;-5.25;99.47
71791;BME280;59638;52.126;5.434;2022-11-20T02:00:28;101555.50;;;-5.29;99.36
71791;BME280;59638;52.126;5.434;2022-11-20T02:02:57;101565.91;;;-5.36;98.77
71791;BME280;59638;52.126;5.434;2022-11-20T02:05:35;101563.41;;;-5.42;99.50
71791;BME280;59638;52.126;5.434;2022-11-20T02:08:04;101561.72;;;-5.43;99.02
71791;BME280;59638;52.126;5.434;2022-11-20T02:10:33;101559.19;;;-5.48;99.31
71791;BME280;59638;52.126;5.434;2022-11-20T02:12:59;101561.88;;;-5.54;99.44
71791;BME280;59638;52.126;5.434;2022-11-20T02:15:44;101554.19;;;-5.59;99.74
71791;BME280;59638;52.126;5.434;2022-11-20T02:18:14;101559.41;;;-5.65;99.43
71791;BME280;59638;52.126;5.434;2022-11-20T02:20:44;101556.03;;;-5.71;99.25
71791;BME280;59638;52.126;5.434;2022-11-20T02:23:31;101556.03;;;-5.71;99.33
71791;BME280;59638;52.126;5.434;2022-11-20T02:26:01;101564.63;;;-5.72;100.00
71791;BME280;59638;52.126;5.434;2022-11-20T02:28:29;101563.75;;;-5.71;99.35
71791;BME280;59638;52.126;5.434;2022-11-20T02:30:55;101559.44;;;-5.69;98.98
71791;BME280;59638;52.126;5.434;2022-11-20T02:33:22;101549.03;;;-5.57;99.33
71791;BME280;59638;52.126;5.434;2022-11-20T02:35:48;101541.06;;;-4.77;97.38
71791;BME280;59638;52.126;5.434;2022-11-20T02:38:14;101549.25;;;-5.08;97.67
71791;BME280;59638;52.126;5.434;2022-11-20T02:40:41;101533.44;;;-5.45;98.08
71791;BME280;59638;52.126;5.434;2022-11-20T02:43:08;101538.81;;;-5.63;98.90
71791;BME280;59638;52.126;5.434;2022-11-20T02:45:35;101535.47;;;-5.71;99.18
71791;BME280;59638;52.126;5.434;2022-11-20T02:48:02;101533.84;;;-5.79;99.16
71791;BME280;59638;52.126;5.434;2022-11-20T02:50:28;101541.50;;;-5.72;99.34
71791;BME280;59638;52.126;5.434;2022-11-20T02:52:55;101532.00;;;-5.67;99.43
71791;BME280;59638;52.126;5.434;2022-11-20T02:55:21;101538.91;;;-5.72;99.00
71791;BME280;59638;52.126;5.434;2022-11-20T02:57:47;101538.88;;;-5.69;98.74
71791;BME280;59638;52.126;5.434;2022-11-20T03:00:14;101524.31;;;-5.67;99.56
71791;BME280;59638;52.126;5.434;2022-11-20T03:02:40;101527.78;;;-5.75;99.15
71791;BME280;59638;52.126;5.434;2022-11-20T03:05:07;101526.06;;;-5.72;99.62
71791;BME280;59638;52.126;5.434;2022-11-20T03:07:33;101521.56;;;-5.55;99.93
71791;BME280;59638;52.126;5.434;2022-11-20T03:10:00;101507.72;;;-5.45;99.64
71791;BME280;59638;52.126;5.434;2022-11-20T03:12:26;101511.09;;;-5.40;100.00
71791;BME280;59638;52.126;5.434;2022-11-20T03:14:52;101509.47;;;-5.47;99.14
71791;BME280;59638;52.126;5.434;2022-11-20T03:17:19;101513.16;;;-5.69;99.80
71791;BME280;59638;52.126;5.434;2022-11-20T03:19:45;101518.44;;;-5.82;99.99
71791;BME280;59638;52.126;5.434;2022-11-20T03:22:12;101517.63;;;-5.85;99.67
71791;BME280;59638;52.126;5.434;2022-11-20T03:24:38;101516.81;;;-5.89;99.71
71791;BME280;59638;52.126;5.434;2022-11-20T03:27:04;101510.06;;;-5.96;99.48
71791;BME280;59638;52.126;5.434;2022-11-20T03:29:31;101512.66;;;-5.97;99.75
71791;BME280;59638;52.126;5.434;2022-11-20T03:31:58;101511.03;;;-6.05;99.89
71791;BME280;59638;52.126;5.434;2022-11-20T03:34:25;101508.53;;;-6.12;99.55
71791;BME280;59638;52.126;5.434;2022-11-20T03:36:51;101504.31;;;-6.18;99.37
71791;BME280;59638;52.126;5.434;2022-11-20T03:39:18;101500.91;;;-6.18;99.44
71791;BME280;59638;52.126;5.434;2022-11-20T03:41:45;101506.06;;;-6.23;99.52
71791;BME280;59638;52.126;5.434;2022-11-20T03:44:11;101509.56;;;-6.27;99.19
71791;BME280;59638;52.126;5.434;2022-11-20T03:46:38;101501.84;;;-6.28;99.29
71791;BME280;59638;52.126;5.434;2022-11-20T03:49:05;101491.56;;;-6.27;99.46
71791;BME280;59638;52.126;5.434;2022-11-20T03:51:33;101493.13;;;-6.15;100.00
71791;BME280;59638;52.126;5.434;2022-11-20T03:54:03;101499.97;;;-6.11;99.12
71791;BME280;59638;52.126;5.434;2022-11-20T03:56:32;101496.50;;;-6.07;99.28
71791;BME280;59638;52.126;5.434;2022-11-20T03:58:59;101498.16;;;-6.03;99.33
71791;BME280;59638;52.126;5.434;2022-11-20T04:01:28;101504.16;;;-6.03;99.53
71791;BME280;59638;52.126;5.434;2022-11-20T04:03:56;101499.91;;;-6.08;99.01
71791;BME280;59638;52.126;5.434;2022-11-20T04:06:26;101498.31;;;-6.18;99.33
71791;BME280;59638;52.126;5.434;2022-11-20T04:08:57;101493.25;;;-6.27;99.39
71791;BME280;59638;52.126;5.434;2022-11-20T04:11:28;101487.31;;;-6.31;99.47
71791;BME280;59638;52.126;5.434;2022-11-20T04:14:00;101477.91;;;-6.31;99.23
71791;BME280;59638;52.126;5.434;2022-11-20T04:16:30;101483.91;;;-6.32;99.86
71791;BME280;59638;52.126;5.434;2022-11-20T04:18:58;101476.19;;;-6.32;99.38
71791;BME280;59638;52.126;5.434;2022-11-20T04:21:26;101485.63;;;-6.32;98.90
71791;BME280;59638;52.126;5.434;2022-11-20T04:23:53;101473.63;;;-6.32;99.47
71791;BME280;59638;52.126;5.434;2022-11-20T04:26:21;101475.34;;;-6.32;99.10
71791;BME280;59638;52.126;5.434;2022-11-20T04:28:48;101478.75;;;-6.30;99.55
71791;BME280;59638;52.126;5.434;2022-11-20T04:31:17;101480.47;;;-6.32;99.45
71791;BME280;59638;52.126;5.434;2022-11-20T04:33:44;101484.91;;;-6.46;99.07
71791;BME280;59638;52.126;5.434;2022-11-20T04:36:19;101480.69;;;-6.52;99.29
71791;BME280;59638;52.126;5.434;2022-11-20T04:38:46;101478.13;;;-6.55;99.24
71791;BME280;59638;52.126;5.434;2022-11-20T04:41:27;101472.19;;;-6.59;99.24
71791;BME280;59638;52.126;5.434;2022-11-20T04:43:57;101466.22;;;-6.62;99.55
71791;BME280;59638;52.126;5.434;2022-11-20T04:46:27;101469.63;;;-6.60;99.53
71791;BME280;59638;52.126;5.434;2022-11-20T04:48:53;101464.47;;;-6.57;99.56
71791;BME280;59638;52.126;5.434;2022-11-20T04:51:19;101454.13;;;-6.54;99.43
71791;BME280;59638;52.126;5.434;2022-11-20T04:53:46;101467.78;;;-6.49;99.25
71791;BME280;59638;52.126;5.434;2022-11-20T04:56:13;101456.69;;;-6.51;99.44
71791;BME280;59638;52.126;5.434;2022-11-20T04:58:39;101455.88;;;-6.56;98.93
71791;BME280;59638;52.126;5.434;2022-11-20T05:03:35;101450.75;;;-6.56;99.02
71791;BME280;59638;52.126;5.434;2022-11-20T05:06:08;101450.75;;;-6.56;99.52
71791;BME280;59638;52.126;5.434;2022-11-20T05:08:35;101448.06;;;-6.44;99.41
71791;BME280;59638;52.126;5.434;2022-11-20T05:11:07;101454.13;;;-6.51;99.03
71791;BME280;59638;52.126;5.434;2022-11-20T05:13:34;101452.50;;;-6.58;99.47
71791;BME280;59638;52.126;5.434;2022-11-20T05:16:05;101454.28;;;-6.66;99.35
71791;BME280;59638;52.126;5.434;2022-11-20T05:18:33;101447.41;;;-6.67;99.54
71791;BME280;59638;52.126;5.434;2022-11-20T05:21:00;101452.63;;;-6.73;99.30
71791;BME280;59638;52.126;5.434;2022-11-20T05:23:27;101451.81;;;-6.78;99.11
71791;BME280;59638;52.126;5.434;2022-11-20T05:25:55;101447.50;;;-6.76;99.15
71791;BME280;59638;52.126;5.434;2022-11-20T05:28:26;101432.09;;;-6.75;99.19
71791;BME280;59638;52.126;5.434;2022-11-20T05:30:52;101427.75;;;-6.68;98.93
71791;BME280;59638;52.126;5.434;2022-11-20T05:33:19;101423.44;;;-6.63;99.50
71791;BME280;59638;52.126;5.434;2022-11-20T05:35:45;101427.69;;;-6.62;99.17
71791;BME280;59638;52.126;5.434;2022-11-20T05:38:12;101424.34;;;-6.70;99.39
71791;BME280;59638;52.126;5.434;2022-11-20T05:40:38;101415.00;;;-6.77;99.42
71791;BME280;59638;52.126;5.434;2022-11-20T05:43:05;101412.44;;;-6.76;99.05
71791;BME280;59638;52.126;5.434;2022-11-20T05:45:31;101409.03;;;-6.78;99.49
71791;BME280;59638;52.126;5.434;2022-11-20T05:47:58;101413.28;;;-6.75;99.24
71791;BME280;59638;52.126;5.434;2022-11-20T05:50:27;101426.06;;;-6.71;99.46
71791;BME280;59638;52.126;5.434;2022-11-20T05:52:53;101424.41;;;-6.73;99.21
71791;BME280;59638;52.126;5.434;2022-11-20T05:55:20;101433.84;;;-6.78;99.07
71791;BME280;59638;52.126;5.434;2022-11-20T05:57:46;101434.75;;;-6.87;99.15
71791;BME280;59638;52.126;5.434;2022-11-20T06:00:13;101441.66;;;-6.91;99.31
71791;BME280;59638;52.126;5.434;2022-11-20T06:02:39;101442.53;;;-6.92;99.49
71791;BME280;59638;52.126;5.434;2022-11-20T06:05:06;101439.09;;;-6.94;99.41
71791;BME280;59638;52.126;5.434;2022-11-20T06:07:33;101446.00;;;-6.99;99.25
71791;BME280;59638;52.126;5.434;2022-11-20T06:09:59;101446.03;;;-7.05;98.91
71791;BME280;59638;52.126;5.434;2022-11-20T06:12:26;101456.31;;;-7.05;98.88
71791;BME280;59638;52.126;5.434;2022-11-20T06:14:52;101464.88;;;-7.06;99.36
71791;BME280;59638;52.126;5.434;2022-11-20T06:17:18;101461.44;;;-7.08;98.91
71791;BME280;59638;52.126;5.434;2022-11-20T06:19:45;101458.03;;;-7.08;98.97
71791;BME280;59638;52.126;5.434;2022-11-20T06:22:11;101457.19;;;-7.10;99.04
71791;BME280;59638;52.126;5.434;2022-11-20T06:24:37;101464.94;;;-7.15;99.30
71791;BME280;59638;52.126;5.434;2022-11-20T06:27:04;101465.75;;;-7.13;99.06
71791;BME280;59638;52.126;5.434;2022-11-20T06:29:30;101467.44;;;-7.09;99.17
71791;BME280;59638;52.126;5.434;2022-11-20T06:31:59;101452.03;;;-7.04;98.96
71791;BME280;59638;52.126;5.434;2022-11-20T06:34:26;101454.53;;;-7.00;99.10
71791;BME280;59638;52.126;5.434;2022-11-20T06:36:52;101451.97;;;-6.98;99.09
71791;BME280;59638;52.126;5.434;2022-11-20T06:39:18;101453.72;;;-7.06;98.94
71791;BME280;59638;52.126;5.434;2022-11-20T06:41:46;101454.66;;;-7.12;98.87
71791;BME280;59638;52.126;5.434;2022-11-20T06:44:12;101466.63;;;-7.11;98.94
71791;BME280;59638;52.126;5.434;2022-11-20T06:46:38;101463.19;;;-7.13;98.93
71791;BME280;59638;52.126;5.434;2022-11-20T06:49:05;101461.53;;;-7.17;98.57
71791;BME280;59638;52.126;5.434;2022-11-20T06:51:32;101457.25;;;-7.18;99.26
71791;BME280;59638;52.126;5.434;2022-11-20T06:53:58;101468.31;;;-7.10;98.87
71791;BME280;59638;52.126;5.434;2022-11-20T06:56:24;101456.31;;;-7.05;98.93
71791;BME280;59638;52.126;5.434;2022-11-20T06:58:51;101450.28;;;-6.99;98.90
71791;BME280;59638;52.126;5.434;2022-11-20T07:01:17;101443.41;;;-6.96;98.93
71791;BME280;59638;52.126;5.434;2022-11-20T07:03:44;101439.94;;;-6.90;98.62
71791;BME280;59638;52.126;5.434;2022-11-20T07:06:14;101437.28;;;-6.82;98.88
71791;BME280;59638;52.126;5.434;2022-11-20T07:08:40;101442.38;;;-6.76;99.14
71791;BME280;59638;52.126;5.434;2022-11-20T07:11:07;101444.91;;;-6.72;98.86
71791;BME280;59638;52.126;5.434;2022-11-20T07:13:34;101439.75;;;-6.70;98.74
71791;BME280;59638;52.126;5.434;2022-11-20T07:16:02;101433.81;;;-6.72;99.34
71791;BME280;59638;52.126;5.434;2022-11-20T07:18:29;101437.22;;;-6.73;98.75
71791;BME280;59638;52.126;5.434;2022-11-20T07:20:55;101428.66;;;-6.74;99.50
71791;BME280;59638;52.126;5.434;2022-11-20T07:23:22;101433.81;;;-6.72;99.11
71791;BME280;59638;52.126;5.434;2022-11-20T07:25:48;101434.59;;;-6.69;98.87
71791;BME280;59638;52.126;5.434;2022-11-20T07:28:14;101437.13;;;-6.64;98.87
71791;BME280;59638;52.126;5.434;2022-11-20T07:30:41;101431.94;;;-6.58;98.87
71791;BME280;59638;52.126;5.434;2022-11-20T07:33:07;101431.88;;;-6.52;98.52
71791;BME280;59638;52.126;5.434;2022-11-20T07:35:34;101430.03;;;-6.41;98.80
71791;BME280;59638;52.126;5.434;2022-11-20T07:38:00;101426.59;;;-6.37;98.90
71791;BME280;59638;52.126;5.434;2022-11-20T07:40:26;101411.94;;;-6.30;98.36
71791;BME280;59638;52.126;5.434;2022-11-20T07:42:54;101416.13;;;-6.21;98.88
71791;BME280;59638;52.126;5.434;2022-11-20T07:45:23;101419.41;;;-6.07;98.73
71791;BME280;59638;52.126;5.434;2022-11-20T07:47:50;101418.38;;;-5.95;98.57
71791;BME280;59638;52.126;5.434;2022-11-20T07:50:17;101424.25;;;-5.86;98.83
71791;BME280;59638;52.126;5.434;2022-11-20T07:52:44;101422.38;;;-5.75;98.73
71791;BME280;59638;52.126;5.434;2022-11-20T07:55:11;101423.81;;;-5.55;98.38
71791;BME280;59638;52.126;5.434;2022-11-20T07:57:37;101425.25;;;-5.36;98.12
71791;BME280;59638;52.126;5.434;2022-11-20T08:00:06;101429.38;;;-5.24;98.65
71791;BME280;59638;52.126;5.434;2022-11-20T08:02:39;101426.78;;;-5.21;98.25
71791;BME280;59638;52.126;5.434;2022-11-20T08:05:06;101431.81;;;-5.16;98.30
71791;BME280;59638;52.126;5.434;2022-11-20T08:07:37;101430.94;;;-5.14;97.43
71791;BME280;59638;52.126;5.434;2022-11-20T08:10:04;101416.91;;;-4.95;98.26
71791;BME280;59638;52.126;5.434;2022-11-20T08:12:30;101413.25;;;-4.81;97.76
71791;BME280;59638;52.126;5.434;2022-11-20T08:15:15;101401.97;;;-4.76;97.39
71791;BME280;59638;52.126;5.434;2022-11-20T08:17:42;101399.22;;;-4.65;97.75
71791;BME280;59638;52.126;5.434;2022-11-20T08:20:28;101410.94;;;-4.50;96.65
71791;BME280;59638;52.126;5.434;2022-11-20T08:23:02;101406.31;;;-3.49;97.13
71791;BME280;59638;52.126;5.434;2022-11-20T08:25:30;101394.84;;;-2.68;94.87
71791;BME280;59638;52.126;5.434;2022-11-20T08:27:58;101403.50;;;-3.05;94.41
71791;BME280;59638;52.126;5.434;2022-11-20T08:30:27;101395.78;;;-3.40;94.51
71791;BME280;59638;52.126;5.434;2022-11-20T08:32:54;101395.31;;;-3.58;94.75
71791;BME280;59638;52.126;5.434;2022-11-20T08:35:21;101398.72;;;-3.57;95.06
71791;BME280;59638;52.126;5.434;2022-11-20T08:37:48;101398.59;;;-3.51;95.10
71791;BME280;59638;52.126;5.434;2022-11-20T08:40:15;101407.09;;;-3.46;94.62
71791;BME280;59638;52.126;5.434;2022-11-20T08:42:50;101405.47;;;-3.51;94.91
71791;BME280;59638;52.126;5.434;2022-11-20T08:45:18;101402.63;;;-3.39;95.06
71791;BME280;59638;52.126;5.434;2022-11-20T08:47:45;101404.97;;;-3.29;94.91
71791;BME280;59638;52.126;5.434;2022-11-20T08:50:13;101390.22;;;-3.23;95.11
71791;BME280;59638;52.126;5.434;2022-11-20T08:52:40;101392.81;;;-3.25;95.15
71791;BME280;59638;52.126;5.434;2022-11-20T08:55:07;101397.03;;;-3.21;94.93
71791;BME280;59638;52.126;5.434;2022-11-20T08:57:35;101388.41;;;-3.20;95.19
71791;BME280;59638;52.126;5.434;2022-11-20T09:00:04;101386.56;;;-3.15;95.12
71791;BME280;59638;52.126;5.434;2022-11-20T09:02:32;101394.31;;;-3.15;95.02
71791;BME280;59638;52.126;5.434;2022-11-20T09:04:58;101383.19;;;-3.17;95.27
71791;BME280;59638;52.126;5.434;2022-11-20T09:07:25;101390.75;;;-3.09;95.00
71791;BME280;59638;52.126;5.434;2022-11-20T09:09:51;101388.03;;;-3.05;95.43
71791;BME280;59638;52.126;5.434;2022-11-20T09:12:37;101382.72;;;-2.98;95.46
71791;BME280;59638;52.126;5.434;2022-11-20T09:15:04;101386.91;;;-2.94;95.61
71791;BME280;59638;52.126;5.434;2022-11-20T09:17:31;101380.81;;;-2.90;95.61
71791;BME280;59638;52.126;5.434;2022-11-20T09:19:57;101384.09;;;-2.85;95.33
71791;BME280;59638;52.126;5.434;2022-11-20T09:22:23;101375.28;;;-2.77;95.76
71791;BME280;59638;52.126;5.434;2022-11-20T09:24:50;101372.44;;;-2.67;95.88
71791;BME280;59638;52.126;5.434;2022-11-20T09:27:17;101370.38;;;-2.55;96.04
71791;BME280;59638;52.126;5.434;2022-11-20T09:29:47;101357.88;;;-2.39;95.69
71791;BME280;59638;52.126;5.434;2022-11-20T09:32:14;101355.13;;;-2.33;95.42
71791;BME280;59638;52.126;5.434;2022-11-20T09:34:40;101346.06;;;-2.18;95.60
71791;BME280;59638;52.126;5.434;2022-11-20T09:37:06;101336.13;;;-2.02;95.53
71791;BME280;59638;52.126;5.434;2022-11-20T09:39:33;101342.72;;;-1.92;95.77
71791;BME280;59638;52.126;5.434;2022-11-20T09:42:14;101336.31;;;-1.80;95.56
71791;BME280;59638;52.126;5.434;2022-11-20T09:50:38;101322.63;;;-1.29;94.58
71791;BME280;59638;52.126;5.434;2022-11-20T09:53:12;101322.44;;;-1.23;95.14
71791;BME280;59638;52.126;5.434;2022-11-20T09:55:39;101321.00;;;-1.07;94.37
71791;BME280;59638;52.126;5.434;2022-11-20T09:58:07;101323.81;;;-1.13;94.07
71791;BME280;59638;52.126;5.434;2022-11-20T10:00:39;101318.41;;;-1.07;94.36
71791;BME280;59638;52.126;5.434;2022-11-20T10:03:33;101324.09;;;-0.96;93.75
71791;BME280;59638;52.126;5.434;2022-11-20T10:06:02;101313.72;;;-0.96;94.20
71791;BME280;59638;52.126;5.434;2022-11-20T10:08:41;101307.78;;;-0.74;93.52
71791;BME280;59638;52.126;5.434;2022-11-20T10:11:18;101301.91;;;-0.79;93.48
71791;BME280;59638;52.126;5.434;2022-11-20T10:14:12;101301.38;;;-0.64;93.54
71791;BME280;59638;52.126;5.434;2022-11-20T10:16:46;101295.06;;;-0.34;93.48
71791;BME280;59638;52.126;5.434;2022-11-20T10:22:26;101287.78;;;0.21;92.36
71791;BME280;59638;52.126;5.434;2022-11-20T10:25:18;101282.91;;;0.56;91.89
71791;BME280;59638;52.126;5.434;2022-11-20T10:27:59;101273.69;;;0.90;91.09
71791;BME280;59638;52.126;5.434;2022-11-20T10:30:37;101270.31;;;1.08;90.58
71791;BME280;59638;52.126;5.434;2022-11-20T10:33:11;101269.81;;;1.00;89.98
71791;BME280;59638;52.126;5.434;2022-11-20T10:35:49;101262.78;;;1.02;89.89
71791;BME280;59638;52.126;5.434;2022-11-20T10:38:20;101252.97;;;0.88;89.83
71791;BME280;59638;52.126;5.434;2022-11-20T10:41:06;101250.13;;;0.74;89.61
71791;BME280;59638;52.126;5.434;2022-11-20T10:44:01;101253.31;;;0.80;89.90
71791;BME280;59638;52.126;5.434;2022-11-20T10:46:38;101250.97;;;0.74;89.15
71791;BME280;59638;52.126;5.434;2022-11-20T10:49:12;101246.59;;;0.54;89.88
71791;BME280;59638;52.126;5.434;2022-11-20T10:54:56;101226.84;;;0.50;90.58
71791;BME280;59638;52.126;5.434;2022-11-20T10:57:38;101216.78;;;0.63;90.80
71791;BME280;59638;52.126;5.434;2022-11-20T11:00:13;101212.13;;;0.51;90.69
71791;BME280;59638;52.126;5.434;2022-11-20T11:02:50;101214.59;;;0.54;90.94
71791;BME280;59638;52.126;5.434;2022-11-20T11:05:38;101218.88;;;0.55;91.40
71791;BME280;59638;52.126;5.434;2022-11-20T11:08:15;101209.78;;;0.65;91.34
71791;BME280;59638;52.126;5.434;2022-11-20T11:13:21;101204.63;;;0.84;91.61
71791;BME280;59638;52.126;5.434;2022-11-20T11:15:48;101193.84;;;0.93;91.62
71791;BME280;59638;52.126;5.434;2022-11-20T11:18:27;101194.47;;;0.98;91.42
71791;BME280;59638;52.126;5.434;2022-11-20T11:20:55;101188.69;;;0.92;91.60
71791;BME280;59638;52.126;5.434;2022-11-20T11:23:34;101184.91;;;0.80;91.80
71791;BME280;59638;52.126;5.434;2022-11-20T11:26:05;101172.59;;;0.84;92.29
71791;BME280;59638;52.126;5.434;2022-11-20T11:28:32;101169.59;;;0.74;92.30
71791;BME280;59638;52.126;5.434;2022-11-20T11:30:59;101154.91;;;0.73;92.89
71791;BME280;59638;52.126;5.434;2022-11-20T11:33:30;101156.59;;;0.74;93.56
71791;BME280;59638;52.126;5.434;2022-11-20T11:36:14;101145.09;;;0.79;93.92
71791;BME280;59638;52.126;5.434;2022-11-20T11:38:44;101138.56;;;0.90;94.16
71791;BME280;59638;52.126;5.434;2022-11-20T11:41:20;101132.16;;;0.97;94.20
71791;BME280;59638;52.126;5.434;2022-11-20T11:43:57;101129.63;;;0.95;94.20
71791;BME280;59638;52.126;5.434;2022-11-20T11:46:54;101121.66;;;1.00;94.46
71791;BME280;59638;52.126;5.434;2022-11-20T11:49:23;101125.00;;;1.02;94.76
71791;BME280;59638;52.126;5.434;2022-11-20T11:54:30;101120.50;;;1.05;95.01
71791;BME280;59638;52.126;5.434;2022-11-20T11:57:00;101104.56;;;1.13;94.94
71791;BME280;59638;52.126;5.434;2022-11-20T11:59:44;101106.09;;;1.17;95.08
71791;BME280;59638;52.126;5.434;2022-11-20T12:02:25;101114.06;;;1.14;95.27
71791;BME280;59638;52.126;5.434;2022-11-20T12:05:21;101097.47;;;1.17;95.50
71791;BME280;59638;52.126;5.434;2022-11-20T12:07:54;101102.38;;;1.23;95.55
71791;BME280;59638;52.126;5.434;2022-11-20T12:10:36;101084.72;;;1.29;95.66
71791;BME280;59638;52.126;5.434;2022-11-20T12:15:44;101067.31;;;1.49;95.99
71791;BME280;59638;52.126;5.434;2022-11-20T12:18:16;101081.94;;;1.51;95.61
71791;BME280;59638;52.126;5.434;2022-11-20T12:23:53;101068.56;;;1.59;95.96
71791;BME280;59638;52.126;5.434;2022-11-20T12:37:50;101061.63;;;1.59;96.32
71791;BME280;59638;52.126;5.434;2022-11-20T12:43:21;101047.91;;;1.56;96.92
71791;BME280;59638;52.126;5.434;2022-11-20T12:46:16;101048.06;;;1.53;97.45
71791;BME280;59638;52.126;5.434;2022-11-20T12:48:52;101035.94;;;1.52;97.28
71791;BME280;59638;52.126;5.434;2022-11-20T12:51:37;101034.34;;;1.49;97.53
71791;BME280;59638;52.126;5.434;2022-11-20T13:00:15;100999.69;;;1.49;98.30
71791;BME280;59638;52.126;5.434;2022-11-20T13:06:30;100975.34;;;1.50;98.72
71791;BME280;59638;52.126;5.434;2022-11-20T13:08:35;100971.53;;;1.57;98.70
71791;BME280;59638;52.126;5.434;2022-11-20T13:16:33;100967.13;;;1.59;99.13
71791;BME280;59638;52.126;5.434;2022-11-20T13:19:03;100962.66;;;1.61;98.72
71791;BME280;59638;52.126;5.434;2022-11-20T13:21:42;100954.78;;;1.62;99.20
71791;BME280;59638;52.126;5.434;2022-11-20T13:26:46;100947.06;;;1.61;99.17
71791;BME280;59638;52.126;5.434;2022-11-20T13:29:17;100943.34;;;1.65;99.76
71791;BME280;59638;52.126;5.434;2022-11-20T13:31:46;100942.59;;;1.63;99.48
71791;BME280;59638;52.126;5.434;2022-11-20T13:34:23;100938.31;;;1.62;99.95
71791;BME280;59638;52.126;5.434;2022-11-20T13:36:52;100937.47;;;1.61;99.89
71791;BME280;59638;52.126;5.434;2022-11-20T13:39:33;100947.06;;;1.61;99.98
71791;BME280;59638;52.126;5.434;2022-11-20T13:42:03;100944.28;;;1.64;99.98
71791;BME280;59638;52.126;5.434;2022-11-20T13:44:48;100941.84;;;1.61;100.00
71791;BME280;59638;52.126;5.434;2022-11-20T13:47:23;100933.13;;;1.62;99.78
71791;BME280;59638;52.126;5.434;2022-11-20T13:49:51;100915.66;;;1.64;100.00
71791;BME280;59638;52.126;5.434;2022-11-20T13:52:55;100917.34;;;1.65;100.00
71791;BME280;59638;52.126;5.434;2022-11-20T13:55:38;100900.03;;;1.64;100.00
71791;BME280;59638;52.126;5.434;2022-11-20T13:58:24;100907.84;;;1.64;100.00
71791;BME280;59638;52.126;5.434;2022-11-20T14:01:05;100904.41;;;1.63;100.00
71791;BME280;59638;52.126;5.434;2022-11-20T14:03:34;100910.63;;;1.61;100.00
71791;BME280;59638;52.126;5.434;2022-11-20T14:06:27;100917.81;;;1.56;100.00